MET'MAP v2.0
soon released !

Expected late october,
this new version will be
more efficient, smarter,
and hosted on a brand new
server x3 powerfull...
...and still free !


Not compatible ?
Try the mobile version !

LOG IN : | Subscribe | Disclaimer | Who is Orbifly ? |
ICAO code :
Legend : VFR Marginal VFR IFR Intensive IFR Very Intensive IFR
Visi :
Ceiling :
>= 8 km
>= 3000ft
5 to 8 km
1000 to 3000 ft
1500m to 5 km
500 to 1000 ft
800 to 1500m
200 to 500 ft
< 800m
< 200 ft

METAR - EDDF Frankfurt Int. - 05 Apr 2020 12:58 UTC
Data Sources :     NOAA   


- Airport Elevation : 364 ft
- IATA code : FRA
- No reported NOTAMs.


EDDF - Frankfurt Int.

Latest METAR recorded : 2015/08/11 07:50 EDDF 110750Z VRB05KT 9999 FEW025 SCT300 23/17 Q1017 NOSIG
TAF TAF EDDF
Valid from the 05 at 06:00 until the 06 at 12:00 UTC


050500Z 0506/0612 02007KT CAVOK
BECMG 0508/0511 10010KT
BECMG 0518/0521 05005KT
BECMG 0608/0611 20005KT

Source NOAA


MET'MAP, your aeronautical weather chart ! - Copyright ORBIFLY December 2007

Programming & Development : Alexandra Zaïnal
Co-Developer : Marc-Olivier Méhu
Technical & hardware support : Manuel Goepfert
Concept & Financing : Baudouin d'Aumeries